Time;durP1;ratioP1;P1;durP2;ratioP2;P2;SDS_P1;SDS_P2;PMS_P1;PMS_P2;Temp;Humidity;BMP_temperature;BMP_pressure;BME280_temperature;BME280_humidity;BME280_pressure;Samples;Min_cycle;Max_cycle;Signal;HPM_P1;HPM_P2
2023/05/04 00:01:58;;;;;;;6.82;2.10;;;;;;;;;;5080035;28;20047;-64
2023/05/04 00:04:25;;;;;;;5.68;2.13;;;;;;;;;;5083521;28;20052;-64
2023/05/04 00:06:52;;;;;;;6.40;2.35;;;;;;;;;;5081243;28;20063;-64
2023/05/04 00:09:21;;;;;;;4.32;2.08;;;;;;;;;;5086687;28;20407;-64
2023/05/04 00:11:48;;;;;;;4.07;2.08;;;;;;;;;;5081279;28;20048;-63
2023/05/04 00:14:15;;;;;;;4.68;2.33;;;;;;;;;;5087304;28;20487;-64
2023/05/04 00:16:43;;;;;;;3.63;1.90;;;;;;;;;;5081477;28;20052;-64
2023/05/04 00:19:10;;;;;;;6.65;2.28;;;;;;;;;;5076325;28;20472;-64
2023/05/04 00:21:38;;;;;;;4.85;2.33;;;;;;;;;;5074230;28;20044;-64
2023/05/04 00:24:05;;;;;;;5.70;2.40;;;;;;;;;;5078038;28;21144;-64
2023/05/04 00:26:34;;;;;;;6.03;2.25;;;;;;;;;;5081163;28;20047;-64
2023/05/04 00:29:01;;;;;;;4.68;2.28;;;;;;;;;;5081127;28;20052;-65
2023/05/04 00:31:28;;;;;;;5.60;2.38;;;;;;;;;;5078812;28;20055;-64
2023/05/04 00:33:56;;;;;;;5.70;2.40;;;;;;;;;;5076226;28;20053;-63
2023/05/04 00:36:23;;;;;;;5.65;2.30;;;;;;;;;;5084221;28;20384;-64
2023/05/04 00:38:50;;;;;;;4.80;2.30;;;;;;;;;;5084069;28;20041;-64
2023/05/04 00:41:18;;;;;;;4.35;1.83;;;;;;;;;;5082821;28;20166;-64
2023/05/04 00:43:47;;;;;;;4.28;2.22;;;;;;;;;;5080083;28;20051;-64
2023/05/04 00:46:14;;;;;;;4.97;2.50;;;;;;;;;;5078904;28;20155;-63
2023/05/04 00:48:42;;;;;;;5.22;2.50;;;;;;;;;;5080531;28;20056;-64
2023/05/04 00:51:10;;;;;;;5.30;2.40;;;;;;;;;;5079900;28;20053;-64
2023/05/04 00:53:38;;;;;;;5.32;2.25;;;;;;;;;;5087069;28;20044;-64
2023/05/04 00:56:06;;;;;;;4.78;2.00;;;;;;;;;;5083525;28;20045;-64
2023/05/04 00:58:34;;;;;;;7.07;2.30;;;;;;;;;;5080285;28;20048;-64
2023/05/04 01:01:03;;;;;;;5.18;2.25;;;;;;;;;;5084821;28;20055;-64
2023/05/04 01:03:31;;;;;;;5.93;2.50;;;;;;;;;;5078176;28;20412;-63
2023/05/04 01:06:10;;;;;;;8.60;2.50;;;;;;;;;;5079925;28;20048;-63
2023/05/04 01:08:39;;;;;;;6.93;2.47;;;;;;;;;;5080628;28;20055;-63
2023/05/04 01:11:11;;;;;;;5.68;2.25;;;;;;;;;;5079769;28;20059;-64
2023/05/04 01:13:39;;;;;;;4.43;2.40;;;;;;;;;;5077717;28;20056;-64
2023/05/04 01:16:07;;;;;;;6.50;2.67;;;;;;;;;;5082452;28;20095;-64
2023/05/04 01:18:35;;;;;;;5.72;2.80;;;;;;;;;;5083755;28;20056;-64
2023/05/04 01:21:02;;;;;;;6.50;3.10;;;;;;;;;;5085926;28;20040;-63
2023/05/04 01:23:30;;;;;;;5.28;2.42;;;;;;;;;;5084746;28;20059;-64
2023/05/04 01:26:01;;;;;;;4.35;2.33;;;;;;;;;;5086834;28;20082;-64
2023/05/04 01:28:31;;;;;;;8.05;2.50;;;;;;;;;;5085764;28;20479;-64
2023/05/04 01:31:00;;;;;;;6.22;2.38;;;;;;;;;;5080218;28;20059;-64
2023/05/04 01:33:29;;;;;;;8.88;2.72;;;;;;;;;;5084902;28;20183;-64
2023/05/04 01:35:56;;;;;;;9.20;2.60;;;;;;;;;;5085474;28;20056;-64
2023/05/04 01:38:24;;;;;;;5.10;2.63;;;;;;;;;;5086522;28;20048;-64
2023/05/04 01:40:52;;;;;;;3.97;2.38;;;;;;;;;;5085479;28;20467;-63
2023/05/04 01:43:19;;;;;;;4.38;2.38;;;;;;;;;;5085028;28;20067;-64
2023/05/04 01:45:47;;;;;;;9.82;2.45;;;;;;;;;;5084273;28;20049;-64
2023/05/04 01:48:14;;;;;;;4.20;2.15;;;;;;;;;;5087546;28;20071;-64
2023/05/04 01:50:41;;;;;;;5.78;2.83;;;;;;;;;;5089356;28;20463;-64
2023/05/04 01:53:08;;;;;;;5.05;2.40;;;;;;;;;;5086574;28;20067;-64
2023/05/04 01:55:35;;;;;;;4.35;2.40;;;;;;;;;;5080859;28;20055;-64
2023/05/04 01:58:04;;;;;;;7.93;2.80;;;;;;;;;;5086574;28;20434;-63
2023/05/04 02:00:32;;;;;;;5.32;2.20;;;;;;;;;;5085682;28;20048;-64
2023/05/04 02:02:59;;;;;;;4.28;2.20;;;;;;;;;;5091721;28;20098;-63
2023/05/04 02:05:26;;;;;;;4.50;2.40;;;;;;;;;;5080500;28;20068;-63
2023/05/04 02:07:54;;;;;;;5.65;2.25;;;;;;;;;;5089498;28;20550;-64
2023/05/04 02:10:21;;;;;;;6.20;2.75;;;;;;;;;;5081470;28;20049;-64
2023/05/04 02:12:48;;;;;;;5.30;2.90;;;;;;;;;;5079314;28;20051;-63
2023/05/04 02:15:17;;;;;;;5.75;2.70;;;;;;;;;;5085502;28;20052;-64
2023/05/04 02:17:44;;;;;;;6.30;2.50;;;;;;;;;;5087569;28;20514;-63
2023/05/04 02:20:11;;;;;;;5.13;2.13;;;;;;;;;;5083209;28;20052;-64
2023/05/04 02:22:39;;;;;;;4.47;2.28;;;;;;;;;;5088939;28;20063;-64
2023/05/04 02:25:07;;;;;;;6.45;2.97;;;;;;;;;;5083899;28;20059;-64
2023/05/04 02:27:34;;;;;;;4.53;2.60;;;;;;;;;;5087119;28;20048;-64
2023/05/04 02:30:03;;;;;;;6.97;2.70;;;;;;;;;;5085042;28;20051;-64
2023/05/04 02:32:31;;;;;;;3.85;2.35;;;;;;;;;;5084985;28;20051;-64
2023/05/04 02:34:59;;;;;;;4.93;2.75;;;;;;;;;;5088285;28;20572;-64
2023/05/04 02:37:26;;;;;;;6.38;2.53;;;;;;;;;;5087122;28;20048;-64
2023/05/04 02:39:53;;;;;;;4.10;2.55;;;;;;;;;;5088040;28;20044;-64
2023/05/04 02:42:21;;;;;;;7.05;2.80;;;;;;;;;;5085407;28;20693;-64
2023/05/04 02:44:48;;;;;;;6.97;2.78;;;;;;;;;;5085554;28;20047;-64
2023/05/04 02:47:15;;;;;;;9.45;2.90;;;;;;;;;;5087883;28;20054;-63
2023/05/04 02:49:44;;;;;;;3.75;2.30;;;;;;;;;;5086935;28;20046;-63
2023/05/04 02:52:12;;;;;;;8.13;2.47;;;;;;;;;;5084019;28;20040;-64
2023/05/04 02:54:39;;;;;;;4.43;2.38;;;;;;;;;;5088297;28;20051;-64
2023/05/04 02:57:06;;;;;;;6.82;2.85;;;;;;;;;;5078825;28;20048;-63
2023/05/04 02:59:33;;;;;;;5.47;2.63;;;;;;;;;;5076786;28;20407;-64
2023/05/04 03:02:00;;;;;;;5.68;2.55;;;;;;;;;;5078984;28;20471;-63
2023/05/04 03:04:28;;;;;;;4.97;2.40;;;;;;;;;;5075775;28;20052;-64
2023/05/04 03:06:56;;;;;;;6.45;2.67;;;;;;;;;;5080554;28;20510;-63
2023/05/04 03:09:24;;;;;;;6.32;2.75;;;;;;;;;;5085283;28;20048;-64
2023/05/04 03:11:51;;;;;;;5.82;2.72;;;;;;;;;;5076884;28;20064;-64
2023/05/04 03:14:18;;;;;;;4.47;2.35;;;;;;;;;;5085922;28;20458;-65
2023/05/04 03:16:45;;;;;;;6.82;2.80;;;;;;;;;;5080657;28;20071;-64
2023/05/04 03:19:13;;;;;;;7.63;2.38;;;;;;;;;;5090184;28;20040;-64
2023/05/04 03:21:40;;;;;;;7.20;2.70;;;;;;;;;;5082929;28;20051;-64
2023/05/04 03:24:08;;;;;;;6.32;2.55;;;;;;;;;;5086267;28;20056;-63
2023/05/04 03:26:37;;;;;;;5.38;2.67;;;;;;;;;;5085695;28;20047;-64
2023/05/04 03:29:04;;;;;;;8.43;2.67;;;;;;;;;;5080741;28;20044;-63
2023/05/04 03:31:31;;;;;;;6.13;2.97;;;;;;;;;;5082443;28;20051;-63
2023/05/04 03:33:59;;;;;;;8.02;3.05;;;;;;;;;;5084015;28;20423;-64
2023/05/04 03:36:26;;;;;;;5.78;2.70;;;;;;;;;;5084339;28;20429;-64
2023/05/04 03:38:53;;;;;;;10.02;3.05;;;;;;;;;;5086148;28;20048;-64
2023/05/04 03:41:22;;;;;;;7.38;2.95;;;;;;;;;;5084777;28;20048;-64
2023/05/04 03:43:50;;;;;;;10.52;3.45;;;;;;;;;;5080642;28;20130;-63
2023/05/04 03:46:17;;;;;;;6.85;3.15;;;;;;;;;;5082727;28;20131;-63
2023/05/04 03:48:44;;;;;;;6.53;2.95;;;;;;;;;;5077696;28;20117;-63
2023/05/04 03:51:11;;;;;;;7.18;2.92;;;;;;;;;;5077823;28;20464;-63
2023/05/04 03:53:38;;;;;;;10.98;3.45;;;;;;;;;;5078134;28;20078;-64
2023/05/04 03:56:06;;;;;;;6.57;2.95;;;;;;;;;;5083681;28;20612;-64
2023/05/04 03:58:35;;;;;;;9.27;3.22;;;;;;;;;;5084694;28;20054;-64
2023/05/04 04:01:03;;;;;;;9.07;3.13;;;;;;;;;;5086225;28;20388;-64
2023/05/04 04:03:30;;;;;;;5.18;3.20;;;;;;;;;;5081108;28;20127;-64
2023/05/04 04:05:57;;;;;;;11.07;3.55;;;;;;;;;;5082456;28;20150;-64
2023/05/04 04:08:25;;;;;;;7.45;3.40;;;;;;;;;;5083585;28;20048;-64
2023/05/04 04:10:52;;;;;;;5.70;3.38;;;;;;;;;;5088513;28;20035;-64
2023/05/04 04:13:19;;;;;;;9.82;3.22;;;;;;;;;;5081015;28;20059;-63
2023/05/04 04:15:49;;;;;;;5.97;3.00;;;;;;;;;;5084143;28;20047;-64
2023/05/04 04:18:16;;;;;;;6.15;3.30;;;;;;;;;;5082719;28;20063;-64
2023/05/04 04:20:43;;;;;;;7.57;3.47;;;;;;;;;;5081602;28;20040;-64
2023/05/04 04:23:10;;;;;;;6.00;3.33;;;;;;;;;;5081740;28;20059;-64
2023/05/04 04:25:38;;;;;;;8.75;2.90;;;;;;;;;;5082651;28;20534;-64
2023/05/04 04:28:05;;;;;;;5.97;3.00;;;;;;;;;;5079436;28;20067;-64
2023/05/04 04:30:32;;;;;;;5.90;3.15;;;;;;;;;;5083730;28;20058;-63
2023/05/04 04:33:01;;;;;;;7.85;3.05;;;;;;;;;;5078622;28;20499;-63
2023/05/04 04:35:28;;;;;;;7.78;3.30;;;;;;;;;;5079515;28;20059;-64
2023/05/04 04:37:55;;;;;;;6.85;3.50;;;;;;;;;;5077437;28;20172;-64
2023/05/04 04:40:23;;;;;;;5.38;3.25;;;;;;;;;;5079414;28;20055;-63
2023/05/04 04:42:51;;;;;;;5.75;3.25;;;;;;;;;;5082554;28;20418;-64
2023/05/04 04:45:19;;;;;;;7.78;3.65;;;;;;;;;;5076796;28;20109;-64
2023/05/04 04:47:46;;;;;;;7.35;3.35;;;;;;;;;;5076692;28;20060;-64
2023/05/04 04:50:15;;;;;;;7.35;3.10;;;;;;;;;;5074442;28;20072;-64
2023/05/04 04:52:42;;;;;;;7.95;3.70;;;;;;;;;;5081888;28;20143;-64
2023/05/04 04:55:10;;;;;;;5.95;3.17;;;;;;;;;;5083065;28;20040;-64
2023/05/04 04:57:37;;;;;;;6.35;2.90;;;;;;;;;;5085833;28;20063;-64
2023/05/04 05:00:08;;;;;;;8.52;3.45;;;;;;;;;;5081981;28;20059;-64
2023/05/04 05:02:36;;;;;;;10.65;4.32;;;;;;;;;;5085506;28;20072;-64
2023/05/04 05:05:03;;;;;;;8.60;3.40;;;;;;;;;;5080348;28;20105;-64
2023/05/04 05:07:32;;;;;;;8.80;3.50;;;;;;;;;;5091462;28;20067;-63
2023/05/04 05:09:59;;;;;;;9.82;3.50;;;;;;;;;;5091466;28;20052;-64
2023/05/04 05:12:26;;;;;;;6.78;3.35;;;;;;;;;;5091302;28;20479;-63
2023/05/04 05:14:54;;;;;;;6.72;3.05;;;;;;;;;;5086907;28;20047;-64
2023/05/04 05:17:21;;;;;;;6.20;2.92;;;;;;;;;;5090340;28;20044;-63
2023/05/04 05:19:48;;;;;;;7.25;3.10;;;;;;;;;;5085040;28;20056;-64
2023/05/04 05:22:16;;;;;;;7.05;3.45;;;;;;;;;;5086244;28;20127;-64
2023/05/04 05:24:45;;;;;;;10.13;3.13;;;;;;;;;;5088657;28;20039;-64
2023/05/04 05:27:12;;;;;;;11.23;3.20;;;;;;;;;;5082658;28;20051;-63
2023/05/04 05:29:40;;;;;;;5.78;3.47;;;;;;;;;;5086636;28;20384;-64
2023/05/04 05:32:07;;;;;;;6.25;3.38;;;;;;;;;;5092721;28;20047;-63
2023/05/04 05:34:37;;;;;;;8.02;2.63;;;;;;;;;;5087848;28;20052;-64
2023/05/04 05:37:05;;;;;;;4.70;2.70;;;;;;;;;;5087251;28;20055;-64
2023/05/04 05:39:32;;;;;;;6.47;2.97;;;;;;;;;;5091972;28;20052;-64
2023/05/04 05:42:00;;;;;;;4.78;2.72;;;;;;;;;;5085357;28;20055;-64
2023/05/04 05:44:28;;;;;;;5.68;3.08;;;;;;;;;;5088964;28;20051;-64
2023/05/04 05:46:56;;;;;;;7.53;3.13;;;;;;;;;;5087584;28;20396;-64
2023/05/04 05:49:23;;;;;;;7.18;3.05;;;;;;;;;;5087498;28;20048;-64
2023/05/04 05:51:50;;;;;;;6.75;2.88;;;;;;;;;;5088803;28;20051;-64
2023/05/04 05:54:18;;;;;;;8.63;2.58;;;;;;;;;;5082097;28;20531;-64
2023/05/04 05:56:45;;;;;;;8.25;2.95;;;;;;;;;;5083152;28;20527;-64
2023/05/04 05:59:15;;;;;;;7.57;2.85;;;;;;;;;;5083782;28;20048;-63
2023/05/04 06:01:42;;;;;;;6.20;2.63;;;;;;;;;;5083216;28;20048;-63
2023/05/04 06:04:09;;;;;;;6.60;3.10;;;;;;;;;;5084214;28;20113;-64
2023/05/04 06:06:37;;;;;;;6.40;2.78;;;;;;;;;;5088128;28;20048;-64
2023/05/04 06:09:05;;;;;;;6.30;2.88;;;;;;;;;;5089062;28;20044;-64
2023/05/04 06:11:32;;;;;;;7.28;3.28;;;;;;;;;;5083997;28;20083;-66
2023/05/04 06:14:00;;;;;;;8.98;3.00;;;;;;;;;;5080401;28;20384;-66
2023/05/04 06:16:28;;;;;;;6.53;2.20;;;;;;;;;;5081561;28;20532;-66
2023/05/04 06:18:55;;;;;;;8.07;2.70;;;;;;;;;;5083907;28;20055;-65
2023/05/04 06:21:22;;;;;;;11.48;3.38;;;;;;;;;;5079229;28;20059;-64
2023/05/04 06:23:50;;;;;;;8.57;3.30;;;;;;;;;;5076591;28;20123;-66
2023/05/04 06:26:27;;;;;;;6.90;2.80;;;;;;;;;;5089052;28;20055;-66
2023/05/04 06:28:54;;;;;;;5.90;2.60;;;;;;;;;;5077457;28;20055;-65
2023/05/04 06:31:22;;;;;;;6.13;2.78;;;;;;;;;;5082240;28;20052;-64
2023/05/04 06:33:51;;;;;;;5.28;2.72;;;;;;;;;;5082652;28;20446;-64
2023/05/04 06:36:18;;;;;;;6.30;2.90;;;;;;;;;;5086381;28;20048;-64
2023/05/04 06:38:46;;;;;;;5.82;2.60;;;;;;;;;;5084965;28;20036;-65
2023/05/04 06:41:13;;;;;;;6.90;2.88;;;;;;;;;;5083603;28;20051;-65
2023/05/04 06:43:42;;;;;;;4.63;2.30;;;;;;;;;;5078150;28;20045;-65
2023/05/04 06:46:09;;;;;;;4.18;2.20;;;;;;;;;;5079476;28;20093;-65
2023/05/04 06:48:37;;;;;;;7.13;3.05;;;;;;;;;;5083294;28;20341;-64
2023/05/04 06:51:05;;;;;;;6.68;2.50;;;;;;;;;;5081189;28;20052;-65
2023/05/04 06:53:32;;;;;;;7.63;3.05;;;;;;;;;;5082793;28;20483;-65
2023/05/04 06:56:00;;;;;;;6.18;2.92;;;;;;;;;;5084042;28;20041;-65
2023/05/04 06:58:27;;;;;;;4.63;2.15;;;;;;;;;;5082437;28;20356;-64
2023/05/04 07:00:54;;;;;;;7.18;2.60;;;;;;;;;;5086671;28;20044;-64
2023/05/04 07:03:23;;;;;;;7.07;2.50;;;;;;;;;;5083570;28;20041;-64
2023/05/04 07:05:50;;;;;;;9.27;3.10;;;;;;;;;;5085015;28;20055;-64
2023/05/04 07:08:19;;;;;;;5.80;2.50;;;;;;;;;;5088513;28;20399;-64
2023/05/04 07:10:46;;;;;;;6.43;2.65;;;;;;;;;;5077978;28;20047;-64
2023/05/04 07:13:14;;;;;;;7.40;2.42;;;;;;;;;;5078872;28;20055;-64
2023/05/04 07:15:42;;;;;;;8.85;2.65;;;;;;;;;;5083380;28;20075;-64
2023/05/04 07:18:09;;;;;;;8.77;2.70;;;;;;;;;;5080996;28;20105;-64
2023/05/04 07:20:36;;;;;;;5.32;2.58;;;;;;;;;;5079952;28;20091;-64
2023/05/04 07:23:04;;;;;;;6.22;2.70;;;;;;;;;;5076334;28;20487;-64
2023/05/04 07:25:32;;;;;;;6.38;2.70;;;;;;;;;;5077085;28;20040;-64
2023/05/04 07:28:00;;;;;;;5.32;2.20;;;;;;;;;;5072090;28;20040;-64
2023/05/04 07:30:27;;;;;;;7.00;2.55;;;;;;;;;;5085387;28;20052;-64
2023/05/04 07:32:54;;;;;;;5.60;2.05;;;;;;;;;;5088253;28;20061;-65
2023/05/04 07:35:22;;;;;;;7.43;2.40;;;;;;;;;;5084080;28;20051;-64
2023/05/04 07:37:50;;;;;;;5.30;2.30;;;;;;;;;;5077060;28;20044;-64
2023/05/04 07:40:17;;;;;;;8.70;2.70;;;;;;;;;;5081095;28;20052;-64
2023/05/04 07:42:48;;;;;;;8.57;2.65;;;;;;;;;;5077153;28;20047;-64
2023/05/04 07:45:16;;;;;;;6.72;2.88;;;;;;;;;;5079509;28;20055;-64
2023/05/04 07:47:43;;;;;;;4.20;2.55;;;;;;;;;;5080291;28;20516;-64
2023/05/04 07:50:11;;;;;;;7.70;2.70;;;;;;;;;;5080534;28;20432;-64
2023/05/04 07:52:38;;;;;;;4.35;2.47;;;;;;;;;;5086069;28;20040;-64
2023/05/04 07:55:06;;;;;;;5.95;2.83;;;;;;;;;;5083116;28;20501;-64
2023/05/04 07:57:34;;;;;;;6.15;2.70;;;;;;;;;;5089779;28;20048;-64
2023/05/04 08:00:03;;;;;;;4.97;2.67;;;;;;;;;;5077846;28;20094;-64
2023/05/04 08:02:31;;;;;;;6.18;2.55;;;;;;;;;;5081228;28;20454;-64
2023/05/04 08:04:58;;;;;;;5.28;2.28;;;;;;;;;;5074782;28;20037;-64
2023/05/04 08:07:25;;;;;;;4.05;2.08;;;;;;;;;;5074876;28;20052;-64
2023/05/04 08:09:54;;;;;;;6.40;2.30;;;;;;;;;;5085749;28;20048;-64
2023/05/04 08:12:22;;;;;;;7.70;2.58;;;;;;;;;;5077092;28;20172;-64
2023/05/04 08:14:50;;;;;;;5.88;2.63;;;;;;;;;;5080205;28;20044;-65
2023/05/04 08:17:19;;;;;;;5.70;2.90;;;;;;;;;;5080647;28;20054;-64
2023/05/04 08:19:46;;;;;;;5.63;2.38;;;;;;;;;;5078697;28;20048;-64
2023/05/04 08:22:13;;;;;;;7.13;2.50;;;;;;;;;;5081161;28;20404;-64
2023/05/04 08:24:40;;;;;;;4.88;2.58;;;;;;;;;;5079795;28;20059;-64
2023/05/04 08:27:07;;;;;;;6.38;2.65;;;;;;;;;;5082375;28;20072;-64
2023/05/04 08:29:36;;;;;;;3.97;2.22;;;;;;;;;;5079995;28;20480;-65
2023/05/04 08:32:03;;;;;;;5.82;2.88;;;;;;;;;;5082556;28;20040;-64
2023/05/04 08:34:31;;;;;;;3.70;2.35;;;;;;;;;;5084057;28;20408;-65
2023/05/04 08:36:59;;;;;;;5.13;2.80;;;;;;;;;;5077581;28;20468;-64
2023/05/04 08:39:26;;;;;;;4.63;2.80;;;;;;;;;;5075264;28;20988;-64
2023/05/04 08:41:53;;;;;;;6.57;2.50;;;;;;;;;;5076288;28;20127;-64
2023/05/04 08:44:22;;;;;;;6.93;2.65;;;;;;;;;;5080674;28;20055;-64
2023/05/04 08:46:52;;;;;;;3.67;2.25;;;;;;;;;;5078954;28;20507;-64
2023/05/04 08:49:20;;;;;;;6.00;2.70;;;;;;;;;;5084696;28;20048;-64
2023/05/04 08:51:50;;;;;;;4.95;2.65;;;;;;;;;;5084088;28;20105;-64
2023/05/04 08:54:17;;;;;;;4.90;2.50;;;;;;;;;;5073316;28;20554;-64
2023/05/04 08:56:45;;;;;;;5.03;2.50;;;;;;;;;;5079004;28;20048;-64
2023/05/04 08:59:18;;;;;;;6.63;2.65;;;;;;;;;;5085075;28;20063;-64
2023/05/04 09:01:46;;;;;;;4.82;2.67;;;;;;;;;;5082141;28;20455;-64
2023/05/04 09:04:13;;;;;;;4.93;2.40;;;;;;;;;;5082040;28;20067;-64
2023/05/04 09:06:41;;;;;;;6.35;2.47;;;;;;;;;;5076628;28;20040;-64
2023/05/04 09:09:10;;;;;;;3.78;2.22;;;;;;;;;;5080084;28;20483;-64
2023/05/04 09:11:38;;;;;;;4.70;2.42;;;;;;;;;;5072387;28;20052;-65
2023/05/04 09:14:05;;;;;;;4.45;2.20;;;;;;;;;;5078439;28;20131;-64
2023/05/04 09:16:36;;;;;;;5.10;2.40;;;;;;;;;;5075674;28;20510;-64
2023/05/04 09:19:03;;;;;;;4.82;2.42;;;;;;;;;;5083607;28;20102;-64
2023/05/04 09:21:31;;;;;;;5.32;2.28;;;;;;;;;;5076525;28;20109;-64
2023/05/04 09:23:58;;;;;;;4.88;2.10;;;;;;;;;;5075446;28;20052;-64
2023/05/04 09:26:30;;;;;;;3.88;2.25;;;;;;;;;;5079795;28;20055;-65
2023/05/04 09:28:57;;;;;;;4.93;2.60;;;;;;;;;;5079601;28;20060;-65
2023/05/04 09:31:25;;;;;;;7.32;2.35;;;;;;;;;;5077725;28;20052;-65
2023/05/04 09:33:52;;;;;;;4.05;2.30;;;;;;;;;;5073033;28;20048;-64
2023/05/04 09:36:21;;;;;;;5.50;2.55;;;;;;;;;;5085585;28;20055;-65
2023/05/04 09:38:49;;;;;;;5.75;2.65;;;;;;;;;;5080606;28;20036;-64
2023/05/04 09:41:16;;;;;;;7.32;2.30;;;;;;;;;;5080748;28;20499;-64
2023/05/04 09:43:45;;;;;;;4.13;2.65;;;;;;;;;;5081298;28;20056;-64
2023/05/04 09:46:18;;;;;;;3.42;2.10;;;;;;;;;;5083369;28;20048;-64
2023/05/04 09:48:52;;;;;;;3.53;2.38;;;;;;;;;;5079898;28;20051;-64
2023/05/04 09:51:21;;;;;;;8.05;2.92;;;;;;;;;;5090185;28;20048;-64
2023/05/04 09:53:49;;;;;;;4.65;2.33;;;;;;;;;;5084568;28;20053;-65
2023/05/04 09:56:21;;;;;;;4.07;2.60;;;;;;;;;;5081394;28;20063;-65
2023/05/04 09:58:49;;;;;;;4.63;2.60;;;;;;;;;;5082144;28;20082;-64
2023/05/04 10:01:17;;;;;;;5.10;2.38;;;;;;;;;;5085765;28;20051;-64
2023/05/04 10:03:45;;;;;;;4.00;2.22;;;;;;;;;;5082665;28;20048;-65
2023/05/04 10:06:12;;;;;;;5.55;2.58;;;;;;;;;;5083863;28;20048;-64
2023/05/04 10:08:40;;;;;;;7.05;2.58;;;;;;;;;;5087039;28;20526;-64
2023/05/04 10:11:08;;;;;;;5.60;2.50;;;;;;;;;;5083439;28;20126;-64
2023/05/04 10:13:38;;;;;;;3.33;2.45;;;;;;;;;;5085374;28;20051;-67
2023/05/04 10:16:13;;;;;;;5.55;2.85;;;;;;;;;;5084992;28;20127;-65
2023/05/04 10:18:53;;;;;;;4.75;2.80;;;;;;;;;;5085270;28;20087;-64
2023/05/04 10:21:25;;;;;;;3.97;2.53;;;;;;;;;;5083516;28;20048;-64
2023/05/04 10:24:13;;;;;;;4.97;2.47;;;;;;;;;;5085709;28;20052;-65
2023/05/04 10:26:49;;;;;;;4.40;2.40;;;;;;;;;;5062816;28;20051;-65
2023/05/04 10:29:21;;;;;;;4.53;2.15;;;;;;;;;;5086289;28;20503;-65
2023/05/04 10:31:49;;;;;;;6.05;2.72;;;;;;;;;;5089460;28;20511;-65
2023/05/04 10:34:24;;;;;;;4.93;2.30;;;;;;;;;;5083300;28;20044;-65
2023/05/04 10:36:51;;;;;;;4.72;2.38;;;;;;;;;;5080658;28;20040;-65
2023/05/04 10:39:20;;;;;;;4.93;2.35;;;;;;;;;;5088080;28;20106;-65
2023/05/04 10:41:57;;;;;;;7.22;2.40;;;;;;;;;;5091960;28;20481;-65
2023/05/04 10:44:25;;;;;;;4.28;2.20;;;;;;;;;;5079966;28;20076;-65
2023/05/04 10:46:58;;;;;;;6.70;3.13;;;;;;;;;;5091087;28;20657;-65
2023/05/04 10:49:25;;;;;;;;;;;;;;;;;;5079388;28;20059;-65
2023/05/04 10:52:04;;;;;;;2.92;2.10;;;;;;;;;;5086096;28;19942;-65
2023/05/04 10:54:31;;;;;;;5.55;2.50;;;;;;;;;;5082602;28;20059;-64
2023/05/04 10:57:03;;;;;;;3.65;2.10;;;;;;;;;;5084571;28;20080;-66
2023/05/04 10:59:30;;;;;;;3.28;2.13;;;;;;;;;;5084722;28;20051;-64
2023/05/04 11:01:59;;;;;;;3.47;2.10;;;;;;;;;;5080097;28;20044;-65
2023/05/04 11:04:26;;;;;;;3.15;2.00;;;;;;;;;;5081663;28;20051;-65
2023/05/04 11:06:57;;;;;;;4.63;2.10;;;;;;;;;;5088164;28;20044;-65
2023/05/04 11:09:25;;;;;;;5.72;2.40;;;;;;;;;;5085463;28;20044;-65
2023/05/04 11:11:53;;;;;;;5.90;2.65;;;;;;;;;;5078599;28;20415;-64
2023/05/04 11:14:21;;;;;;;4.63;2.30;;;;;;;;;;5083600;28;20044;-65
2023/05/04 11:16:49;;;;;;;3.20;1.80;;;;;;;;;;5080841;28;20051;-65
2023/05/04 11:19:18;;;;;;;5.05;2.28;;;;;;;;;;5083532;28;20522;-65
2023/05/04 11:21:45;;;;;;;2.75;2.03;;;;;;;;;;5083565;28;20140;-65
2023/05/04 11:24:13;;;;;;;4.35;1.77;;;;;;;;;;5082537;28;20037;-65
2023/05/04 11:26:48;;;;;;;4.03;2.17;;;;;;;;;;5084272;28;20048;-65
2023/05/04 11:29:15;;;;;;;3.40;2.10;;;;;;;;;;5082388;28;20064;-65
2023/05/04 11:31:43;;;;;;;5.10;2.40;;;;;;;;;;5087858;28;20499;-66
2023/05/04 11:34:19;;;;;;;2.60;1.98;;;;;;;;;;5082709;28;20121;-65
2023/05/04 11:36:48;;;;;;;3.92;2.50;;;;;;;;;;5081651;28;20575;-65
2023/05/04 11:39:15;;;;;;;3.75;2.03;;;;;;;;;;5088170;28;20050;-66
2023/05/04 11:41:43;;;;;;;5.00;2.10;;;;;;;;;;5081438;28;20478;-65
2023/05/04 11:44:10;;;;;;;4.97;2.10;;;;;;;;;;5084838;28;20041;-66
2023/05/04 11:46:37;;;;;;;3.95;2.22;;;;;;;;;;5081817;28;20048;-66
2023/05/04 11:49:05;;;;;;;5.85;2.55;;;;;;;;;;5078610;28;20071;-66
2023/05/04 11:51:32;;;;;;;4.25;2.20;;;;;;;;;;5080971;28;20540;-66
2023/05/04 11:54:01;;;;;;;4.05;2.35;;;;;;;;;;5078293;28;20037;-65
2023/05/04 11:56:28;;;;;;;3.60;2.03;;;;;;;;;;5086503;28;20318;-65
2023/05/04 11:58:55;;;;;;;4.50;2.47;;;;;;;;;;5078693;28;20052;-66
2023/05/04 12:01:23;;;;;;;3.58;2.20;;;;;;;;;;5081710;28;20074;-65
2023/05/04 12:03:55;;;;;;;4.85;2.38;;;;;;;;;;5080941;28;21163;-65
2023/05/04 12:06:32;;;;;;;3.93;2.10;;;;;;;;;;5080352;28;20052;-65
2023/05/04 12:09:04;;;;;;;3.40;2.50;;;;;;;;;;5083634;28;20306;-66
2023/05/04 12:11:32;;;;;;;2.80;1.92;;;;;;;;;;5077020;28;20544;-65
2023/05/04 12:14:03;;;;;;;3.95;2.30;;;;;;;;;;5085618;28;20044;-67
2023/05/04 12:16:30;;;;;;;9.85;2.40;;;;;;;;;;5079293;28;20044;-66
2023/05/04 12:19:05;;;;;;;3.42;2.40;;;;;;;;;;5083173;28;20048;-66
2023/05/04 12:21:32;;;;;;;4.32;2.30;;;;;;;;;;5082679;28;20063;-66
2023/05/04 12:24:00;;;;;;;3.25;2.20;;;;;;;;;;5087140;28;20056;-66
2023/05/04 12:26:30;;;;;;;2.88;2.47;;;;;;;;;;5085366;28;20126;-66
2023/05/04 12:28:57;;;;;;;3.35;2.30;;;;;;;;;;5082655;28;20056;-66
2023/05/04 12:31:24;;;;;;;3.45;2.25;;;;;;;;;;5082220;28;20083;-64
2023/05/04 12:33:51;;;;;;;2.80;2.13;;;;;;;;;;5083737;28;20048;-64
2023/05/04 12:36:19;;;;;;;4.13;2.50;;;;;;;;;;5085092;28;20476;-64
2023/05/04 12:38:46;;;;;;;3.13;2.30;;;;;;;;;;5088780;28;20059;-64
2023/05/04 12:41:13;;;;;;;3.80;2.38;;;;;;;;;;5086741;28;20049;-64
2023/05/04 12:43:42;;;;;;;4.68;2.50;;;;;;;;;;5084106;28;20044;-65
2023/05/04 12:46:10;;;;;;;3.78;2.13;;;;;;;;;;5084748;28;20445;-64
2023/05/04 12:48:37;;;;;;;4.18;2.35;;;;;;;;;;5079592;28;20059;-64
2023/05/04 12:51:04;;;;;;;2.67;2.10;;;;;;;;;;5081543;28;20054;-65
2023/05/04 12:53:32;;;;;;;3.72;2.10;;;;;;;;;;5081052;28;20080;-64
2023/05/04 12:56:00;;;;;;;3.55;2.25;;;;;;;;;;5084455;28;20483;-64
2023/05/04 12:58:27;;;;;;;3.40;2.30;;;;;;;;;;5086483;28;20059;-64
2023/05/04 13:00:56;;;;;;;6.68;2.70;;;;;;;;;;5087632;28;20059;-64
2023/05/04 13:03:23;;;;;;;4.57;2.30;;;;;;;;;;5081604;28;20054;-65
2023/05/04 13:05:51;;;;;;;3.80;2.60;;;;;;;;;;5083603;28;20052;-64
2023/05/04 13:08:19;;;;;;;4.25;2.78;;;;;;;;;;5088178;28;20052;-64
2023/05/04 13:10:46;;;;;;;4.15;2.42;;;;;;;;;;5085569;28;20060;-65
2023/05/04 13:13:14;;;;;;;6.25;2.50;;;;;;;;;;5086945;28;20106;-64
2023/05/04 13:15:42;;;;;;;4.05;2.22;;;;;;;;;;5087109;28;20044;-64
2023/05/04 13:18:12;;;;;;;4.45;2.60;;;;;;;;;;5085925;28;20055;-64
2023/05/04 13:20:39;;;;;;;3.08;2.25;;;;;;;;;;5085258;28;20051;-64
2023/05/04 13:23:06;;;;;;;4.50;3.08;;;;;;;;;;5087714;28;20055;-64
2023/05/04 13:25:34;;;;;;;4.13;2.58;;;;;;;;;;5089878;28;20044;-65
2023/05/04 13:28:01;;;;;;;3.38;2.38;;;;;;;;;;5084968;28;20487;-64
2023/05/04 13:30:28;;;;;;;5.55;2.40;;;;;;;;;;5090695;28;20059;-64
2023/05/04 13:32:56;;;;;;;4.20;2.70;;;;;;;;;;5085819;28;20061;-64
2023/05/04 13:35:24;;;;;;;3.63;2.53;;;;;;;;;;5091130;28;20053;-64
2023/05/04 13:37:52;;;;;;;3.58;2.42;;;;;;;;;;5089161;28;20063;-65
2023/05/04 13:40:19;;;;;;;3.72;2.40;;;;;;;;;;5092453;28;20052;-65
2023/05/04 13:42:46;;;;;;;3.80;2.80;;;;;;;;;;5084485;28;20694;-65
2023/05/04 13:45:13;;;;;;;3.92;2.88;;;;;;;;;;5089075;28;20496;-65
2023/05/04 13:47:41;;;;;;;3.95;2.60;;;;;;;;;;5081112;28;20052;-65
2023/05/04 13:50:08;;;;;;;3.28;2.78;;;;;;;;;;5080485;28;20051;-64
2023/05/04 13:52:37;;;;;;;3.55;2.65;;;;;;;;;;5091628;28;20495;-65
2023/05/04 13:55:05;;;;;;;2.95;2.63;;;;;;;;;;5085914;28;20036;-64
2023/05/04 13:57:32;;;;;;;3.22;2.70;;;;;;;;;;5086882;28;20056;-65
2023/05/04 14:00:01;;;;;;;3.67;2.75;;;;;;;;;;5088215;28;20048;-64
2023/05/04 14:02:28;;;;;;;4.88;2.83;;;;;;;;;;5089414;28;20128;-64
2023/05/04 14:04:55;;;;;;;5.57;2.88;;;;;;;;;;5082671;28;20044;-64
2023/05/04 14:07:22;;;;;;;6.38;2.47;;;;;;;;;;5087859;28;20048;-65
2023/05/04 14:09:51;;;;;;;5.22;3.00;;;;;;;;;;5089742;28;20056;-64
2023/05/04 14:12:19;;;;;;;3.95;2.58;;;;;;;;;;5087448;28;20059;-65
2023/05/04 14:14:46;;;;;;;3.58;2.65;;;;;;;;;;5081436;28;20044;-66
2023/05/04 14:17:13;;;;;;;4.57;3.00;;;;;;;;;;5085638;28;20048;-66
2023/05/04 14:19:41;;;;;;;3.40;2.80;;;;;;;;;;5086684;28;20040;-67
2023/05/04 14:22:08;;;;;;;3.38;2.70;;;;;;;;;;5084470;28;20047;-66
2023/05/04 14:24:35;;;;;;;4.68;2.90;;;;;;;;;;5088807;28;20391;-65
2023/05/04 14:27:04;;;;;;;3.88;2.85;;;;;;;;;;5083417;28;20123;-64
2023/05/04 14:29:32;;;;;;;4.93;2.63;;;;;;;;;;5085980;28;20487;-65
2023/05/04 14:31:59;;;;;;;5.20;3.10;;;;;;;;;;5090942;28;20060;-64
2023/05/04 14:34:26;;;;;;;3.42;3.13;;;;;;;;;;5084129;28;20076;-65
2023/05/04 14:36:54;;;;;;;4.65;3.30;;;;;;;;;;5081924;28;20043;-65
2023/05/04 14:39:21;;;;;;;4.82;2.83;;;;;;;;;;5086999;28;20048;-65
2023/05/04 14:41:51;;;;;;;3.85;2.78;;;;;;;;;;5089902;28;20494;-65
2023/05/04 14:44:21;;;;;;;4.75;3.38;;;;;;;;;;5087309;28;20177;-64
2023/05/04 14:46:48;;;;;;;3.85;3.00;;;;;;;;;;5085329;28;20044;-64
2023/05/04 14:49:15;;;;;;;3.90;3.20;;;;;;;;;;5087416;28;20503;-65